Aspinwall, Iowa
Current Conditions -  °F | °C
As of 11:15 AM on Friday 24 Oct 2014 (Local Time) from KDNS Reporting Station
Haze Haze  
Wind Chill: 17°   Ceiling: 900
Heat Index: 17°   Visibility: 4mi
Dew Point: 16°   Wind: 10mph
Humidity: 94%   Direction: 220°SW
Pressure: 29.91"   Gusts: 17mph
Location:  41.91°N, 95.14°W
Report Text: KDNS 241615Z AUTO 22009G15KT 4SM BR BKN009 BKN013 17/16 A2991 RMK AO2
Loading
Personal Weather Stations






























Interactive Weather Map
Tropical Storm Tracking
New forecast layout! Learn more

10-Day Weather Forecast

Advertisements
Track Severe Weather on mobile